Time;durP1;ratioP1;P1;durP2;ratioP2;P2;SDS_P1;SDS_P2;PMS_P1;PMS_P2;Temp;Humidity;BMP_temperature;BMP_pressure;BME280_temperature;BME280_humidity;BME280_pressure;Samples;Min_cycle;Max_cycle;Signal;HPM_P1;HPM_P2
2021/12/01 00:00:12;;;;;;;20.52;10.45;;;8.20;99.90;;;;;;5112892;28;20093;-73
2021/12/01 00:02:39;;;;;;;25.27;9.85;;;8.20;99.90;;;;;;5113905;28;20422;-72
2021/12/01 00:05:06;;;;;;;16.25;8.27;;;8.30;99.90;;;;;;5113954;28;20491;-72
2021/12/01 00:07:35;;;;;;;17.65;9.88;;;8.30;99.90;;;;;;5112288;28;20493;-73
2021/12/01 00:10:01;;;;;;;16.02;9.10;;;8.30;99.90;;;;;;5113795;28;20041;-72
2021/12/01 00:12:27;;;;;;;18.42;9.25;;;8.40;99.90;;;;;;5112865;28;20100;-72
2021/12/01 00:14:53;;;;;;;22.33;11.23;;;8.40;99.90;;;;;;5113543;28;20031;-73
2021/12/01 00:17:18;;;;;;;17.23;9.15;;;8.50;99.90;;;;;;5113494;28;20035;-73
2021/12/01 00:19:44;;;;;;;21.58;11.07;;;8.50;99.90;;;;;;5112665;28;20525;-73
2021/12/01 00:22:09;;;;;;;24.55;13.15;;;8.50;99.90;;;;;;5112623;28;20381;-73
2021/12/01 00:24:35;;;;;;;24.52;12.82;;;8.60;99.90;;;;;;5114291;28;20039;-73
2021/12/01 00:27:01;;;;;;;24.55;12.35;;;8.60;99.90;;;;;;5113048;28;20392;-73
2021/12/01 00:29:26;;;;;;;31.23;15.30;;;8.70;99.90;;;;;;5113734;28;20032;-73
2021/12/01 00:31:52;;;;;;;35.70;15.70;;;8.70;99.90;;;;;;5113641;28;20083;-73
2021/12/01 00:34:18;;;;;;;33.08;17.08;;;8.80;99.90;;;;;;5113699;28;20039;-73
2021/12/01 00:36:44;;;;;;;37.97;18.98;;;8.80;99.90;;;;;;5113138;28;20508;-73
2021/12/01 00:39:10;;;;;;;34.38;18.80;;;8.80;99.90;;;;;;5112199;28;20035;-73
2021/12/01 00:41:35;;;;;;;42.10;21.92;;;8.90;99.90;;;;;;5113435;28;20499;-73
2021/12/01 00:44:01;;;;;;;43.85;23.10;;;8.90;99.90;;;;;;5113551;28;20484;-73
2021/12/01 00:46:40;;;;;;;56.85;27.00;;;9.00;99.90;;;;;;5094696;28;20048;-73
2021/12/01 00:49:06;;;;;;;56.60;25.15;;;9.00;99.90;;;;;;5112043;28;20500;-73
2021/12/01 00:51:32;;;;;;;50.53;26.05;;;9.00;99.90;;;;;;5112783;28;20046;-73
2021/12/01 00:53:57;;;;;;;50.05;26.60;;;9.10;99.90;;;;;;5113513;28;20046;-73
2021/12/01 00:56:23;;;;;;;66.43;29.92;;;9.10;99.90;;;;;;5113236;28;20043;-73
2021/12/01 00:58:50;;;;;;;44.88;25.40;;;9.10;99.90;;;;;;5113318;28;20046;-73
2021/12/01 01:01:16;;;;;;;47.90;26.25;;;9.10;99.90;;;;;;5113373;28;20065;-72
2021/12/01 01:03:41;;;;;;;55.58;27.90;;;9.10;99.90;;;;;;5113785;28;20035;-73
2021/12/01 01:06:08;;;;;;;57.58;28.60;;;9.10;99.90;;;;;;5113149;28;20075;-73
2021/12/01 01:08:34;;;;;;;52.90;26.65;;;9.20;99.90;;;;;;5113456;28;20050;-72
2021/12/01 01:16:25;;;;;;;52.55;27.48;;;9.20;99.90;;;;;;5113240;28;20047;-73
2021/12/01 01:19:03;;;;;;;50.65;26.98;;;9.20;99.90;;;;;;5113787;28;20036;-73
2021/12/01 01:21:33;;;;;;;50.33;26.77;;;9.20;99.90;;;;;;5113362;28;20093;-72
2021/12/01 01:23:59;;;;;;;49.10;26.38;;;9.20;99.90;;;;;;5113309;28;20035;-73
2021/12/01 01:26:25;;;;;;;49.92;26.98;;;9.20;99.90;;;;;;5114255;28;20569;-73
2021/12/01 01:28:51;;;;;;;42.60;25.33;;;9.20;99.90;;;;;;5116849;28;20031;-73
2021/12/01 01:31:18;;;;;;;45.42;25.42;;;9.20;99.90;;;;;;5117331;27;20032;-73
2021/12/01 01:33:44;;;;;;;45.88;25.00;;;9.20;99.90;;;;;;5116844;28;20035;-72
2021/12/01 01:36:13;;;;;;;43.50;23.67;;;9.20;99.90;;;;;;5115150;28;20040;-73
2021/12/01 01:38:40;;;;;;;47.60;24.50;;;9.30;99.90;;;;;;5115307;28;20051;-73
2021/12/01 01:41:08;;;;;;;39.38;21.52;;;9.20;99.90;;;;;;5115278;28;20166;-72
2021/12/01 01:43:35;;;;;;;46.15;20.95;;;9.30;99.90;;;;;;5116537;28;20481;-72
2021/12/01 01:46:00;;;;;;;47.30;22.67;;;9.30;99.90;;;;;;5115118;28;20477;-71
2021/12/01 01:48:35;;;;;;;43.92;21.17;;;9.30;99.90;;;;;;5116565;28;20045;-71
2021/12/01 01:51:04;;;;;;;43.03;19.83;;;9.40;99.90;;;;;;5115096;28;20035;-70
2021/12/01 01:53:31;;;;;;;39.65;19.92;;;9.40;99.90;;;;;;5098160;28;20050;-72
2021/12/01 01:55:59;;;;;;;33.83;16.83;;;9.40;99.90;;;;;;5115895;28;20043;-73
2021/12/01 01:58:26;;;;;;;28.00;16.30;;;9.30;99.90;;;;;;5116286;27;20046;-72
2021/12/01 02:01:08;;;;;;;33.85;14.90;;;9.40;99.90;;;;;;5115109;28;20043;-72
2021/12/01 02:03:43;;;;;;;24.85;13.45;;;9.50;99.90;;;;;;5116253;28;20450;-72
2021/12/01 02:06:10;;;;;;;21.25;12.43;;;9.40;99.90;;;;;;5114849;28;20047;-73
2021/12/01 02:08:40;;;;;;;25.83;12.65;;;9.40;99.90;;;;;;5114670;28;20048;-72
2021/12/01 02:11:10;;;;;;;24.95;12.45;;;9.40;99.90;;;;;;5114841;28;20044;-72
2021/12/01 02:13:36;;;;;;;18.90;8.30;;;9.50;99.90;;;;;;5114722;28;20074;-72
2021/12/01 02:16:02;;;;;;;16.35;8.13;;;9.50;99.90;;;;;;5115602;28;20492;-73
2021/12/01 02:18:28;;;;;;;14.13;6.85;;;9.50;99.90;;;;;;5116304;27;20040;-72
2021/12/01 02:21:03;;;;;;;11.98;7.07;;;9.50;99.90;;;;;;5116111;27;20032;-72
2021/12/01 02:23:30;;;;;;;9.85;5.38;;;9.50;99.90;;;;;;5115904;28;20381;-72
2021/12/01 02:25:56;;;;;;;12.18;4.80;;;9.50;99.90;;;;;;5115259;28;20075;-73
2021/12/01 02:28:23;;;;;;;8.85;4.43;;;9.50;99.90;;;;;;5115507;28;20044;-72
2021/12/01 02:30:49;;;;;;;8.40;4.50;;;9.50;99.90;;;;;;5114316;28;20126;-72
2021/12/01 02:33:15;;;;;;;10.20;4.35;;;9.50;99.90;;;;;;5115709;28;20040;-72
2021/12/01 02:35:41;;;;;;;11.40;4.60;;;9.50;99.90;;;;;;5115270;28;20161;-73
2021/12/01 02:38:06;;;;;;;11.05;5.25;;;9.40;99.90;;;;;;5115579;28;20031;-73
2021/12/01 02:40:33;;;;;;;11.35;5.38;;;9.40;99.90;;;;;;5115613;28;20058;-73
2021/12/01 02:42:59;;;;;;;8.57;6.10;;;9.40;99.90;;;;;;5115282;28;20042;-71
2021/12/01 02:45:24;;;;;;;11.02;6.07;;;9.40;99.90;;;;;;5115616;28;20434;-71
2021/12/01 02:47:50;;;;;;;12.77;6.03;;;9.40;99.90;;;;;;5115020;28;20039;-71
2021/12/01 02:50:16;;;;;;;14.07;5.47;;;9.40;99.90;;;;;;5113896;28;20385;-71
2021/12/01 02:52:42;;;;;;;7.95;4.38;;;9.40;99.90;;;;;;5114023;28;20039;-71
2021/12/01 02:55:10;;;;;;;8.05;4.07;;;9.50;99.90;;;;;;5115308;28;20054;-72
2021/12/01 02:57:53;;;;;;;7.40;3.95;;;9.40;99.90;;;;;;5114774;28;20126;-73
2021/12/01 03:00:21;;;;;;;7.10;4.47;;;9.50;99.90;;;;;;5115034;28;20046;-73
2021/12/01 03:02:48;;;;;;;6.78;2.95;;;9.40;99.90;;;;;;5115277;28;20043;-73
2021/12/01 03:05:16;;;;;;;7.20;2.50;;;9.50;99.90;;;;;;5114872;28;20542;-73
2021/12/01 03:07:43;;;;;;;4.35;2.33;;;9.50;99.90;;;;;;5114493;27;20114;-73
2021/12/01 03:10:09;;;;;;;5.18;2.22;;;9.40;99.90;;;;;;5114852;28;20040;-73
2021/12/01 03:12:36;;;;;;;4.65;2.30;;;9.50;99.90;;;;;;5114682;28;20031;-73
2021/12/01 03:15:04;;;;;;;5.20;2.15;;;9.40;99.90;;;;;;5115297;28;20047;-73
2021/12/01 03:17:31;;;;;;;3.65;2.60;;;9.50;99.90;;;;;;5114291;28;20432;-73
2021/12/01 03:19:57;;;;;;;4.45;2.13;;;9.50;99.90;;;;;;5113455;28;20050;-73
2021/12/01 03:22:23;;;;;;;2.85;2.05;;;9.50;99.90;;;;;;5113232;28;20075;-73
2021/12/01 03:24:50;;;;;;;4.47;1.63;;;9.50;99.90;;;;;;5114799;28;20039;-73
2021/12/01 03:27:16;;;;;;;3.25;1.42;;;9.60;99.90;;;;;;5113176;28;20130;-73
2021/12/01 03:29:45;;;;;;;2.80;1.70;;;9.60;99.90;;;;;;5096598;28;20110;-73
2021/12/01 03:32:10;;;;;;;3.60;1.42;;;9.70;99.90;;;;;;5113465;28;20052;-73
2021/12/01 03:34:37;;;;;;;6.78;1.60;;;9.70;99.90;;;;;;5114413;28;20035;-73
2021/12/01 03:37:03;;;;;;;3.65;1.38;;;9.80;99.90;;;;;;5114244;28;20065;-73
2021/12/01 03:39:29;;;;;;;3.45;1.27;;;9.80;99.90;;;;;;5113049;28;20119;-72
2021/12/01 03:41:54;;;;;;;4.45;1.13;;;9.90;99.90;;;;;;5114315;28;20127;-73
2021/12/01 03:44:20;;;;;;;5.15;1.20;;;9.90;99.90;;;;;;5114092;28;20040;-73
2021/12/01 03:46:45;;;;;;;5.68;1.85;;;9.80;99.90;;;;;;5113810;28;20533;-73
2021/12/01 03:49:11;;;;;;;5.63;1.70;;;9.80;99.90;;;;;;5113652;28;20040;-73
2021/12/01 03:51:36;;;;;;;4.90;2.65;;;9.80;99.90;;;;;;5114165;28;20032;-73
2021/12/01 03:54:03;;;;;;;5.68;1.70;;;9.80;99.90;;;;;;5095819;28;20080;-71
2021/12/01 03:56:30;;;;;;;11.35;2.70;;;9.70;99.90;;;;;;5113691;28;20400;-71
2021/12/01 03:58:56;;;;;;;13.65;2.20;;;9.90;99.90;;;;;;5113936;28;20039;-71
2021/12/01 04:01:22;;;;;;;17.23;3.15;;;10.00;99.90;;;;;;5112927;28;20067;-72
2021/12/01 04:03:48;;;;;;;12.60;2.33;;;9.90;99.90;;;;;;5113078;28;20488;-73
2021/12/01 04:06:13;;;;;;;13.35;2.65;;;9.90;99.90;;;;;;5113435;28;20053;-73
2021/12/01 04:08:39;;;;;;;6.97;1.88;;;9.90;99.90;;;;;;5114200;28;20044;-73
2021/12/01 04:11:05;;;;;;;12.88;2.30;;;9.90;99.90;;;;;;5112775;28;20031;-73
2021/12/01 04:13:30;;;;;;;11.43;2.20;;;9.80;99.90;;;;;;5113628;28;20047;-73
2021/12/01 04:15:56;;;;;;;9.02;2.33;;;9.70;99.90;;;;;;5095218;28;20040;-73
2021/12/01 04:18:22;;;;;;;10.93;2.80;;;9.70;99.90;;;;;;5113839;28;20039;-72
2021/12/01 04:20:47;;;;;;;13.43;3.35;;;9.70;99.90;;;;;;5113974;28;20413;-73
2021/12/01 04:23:13;;;;;;;11.35;3.08;;;9.80;99.90;;;;;;5113596;28;20039;-73
2021/12/01 04:25:39;;;;;;;14.93;3.92;;;9.70;99.90;;;;;;5112553;28;20127;-73
2021/12/01 04:28:05;;;;;;;10.57;3.58;;;9.70;99.90;;;;;;5112569;28;20139;-73
2021/12/01 04:30:30;;;;;;;9.63;3.17;;;9.70;99.90;;;;;;5112667;28;20043;-73
2021/12/01 04:32:57;;;;;;;12.43;3.15;;;9.70;99.90;;;;;;5113804;28;20050;-73
2021/12/01 04:35:24;;;;;;;12.50;3.92;;;9.70;99.90;;;;;;5113448;28;20035;-73
2021/12/01 04:37:50;;;;;;;10.77;3.42;;;9.60;99.90;;;;;;5113446;28;20057;-72
2021/12/01 04:40:16;;;;;;;8.82;3.08;;;9.70;99.90;;;;;;5113413;28;20040;-73
2021/12/01 04:42:43;;;;;;;6.32;3.42;;;9.70;99.90;;;;;;5113443;28;20035;-73
2021/12/01 04:45:14;;;;;;;6.20;3.00;;;9.70;99.90;;;;;;5113522;28;20051;-73
2021/12/01 04:47:52;;;;;;;6.13;2.42;;;9.60;99.90;;;;;;5113287;28;20081;-73
2021/12/01 04:50:20;;;;;;;7.32;3.03;;;9.60;99.90;;;;;;5113916;28;20092;-73
2021/12/01 04:52:46;;;;;;;7.05;3.08;;;9.70;99.90;;;;;;5113868;28;20051;-73
2021/12/01 04:55:13;;;;;;;5.60;2.63;;;9.70;99.90;;;;;;5113281;28;20089;-73
2021/12/01 04:57:41;;;;;;;4.65;2.97;;;9.60;99.90;;;;;;5112020;28;20051;-73
2021/12/01 05:00:08;;;;;;;8.88;2.55;;;9.70;99.90;;;;;;5113414;28;20380;-73
2021/12/01 05:02:34;;;;;;;6.82;3.90;;;9.70;99.90;;;;;;5116400;28;20047;-73
2021/12/01 05:05:00;;;;;;;4.32;3.17;;;9.70;99.90;;;;;;5117351;28;20035;-73
2021/12/01 05:07:25;;;;;;;5.90;3.30;;;9.70;99.90;;;;;;5117053;28;20046;-73
2021/12/01 05:09:51;;;;;;;6.72;4.32;;;9.70;99.90;;;;;;5117164;28;20481;-73
2021/12/01 05:12:17;;;;;;;6.43;3.20;;;9.70;99.90;;;;;;5117440;28;20059;-73
2021/12/01 05:14:42;;;;;;;4.88;2.63;;;9.70;99.90;;;;;;5117242;28;20074;-73
2021/12/01 05:17:08;;;;;;;6.30;2.80;;;9.70;99.90;;;;;;5116710;28;20511;-73
2021/12/01 05:19:34;;;;;;;7.20;2.70;;;9.70;99.90;;;;;;5116926;28;20040;-73
2021/12/01 05:22:02;;;;;;;3.28;2.20;;;9.70;99.90;;;;;;5116907;28;20043;-73
2021/12/01 05:24:28;;;;;;;2.50;1.70;;;9.70;99.90;;;;;;5115767;28;20047;-73
2021/12/01 05:26:54;;;;;;;2.05;1.50;;;9.70;99.90;;;;;;5116185;28;20040;-72
2021/12/01 05:29:21;;;;;;;2.78;1.52;;;9.60;99.90;;;;;;5115639;28;20035;-72
2021/12/01 05:31:47;;;;;;;3.25;1.52;;;9.60;99.90;;;;;;5115570;28;20040;-72
2021/12/01 05:34:13;;;;;;;3.08;1.45;;;9.60;99.90;;;;;;5116752;28;20047;-72
2021/12/01 05:36:39;;;;;;;4.03;1.55;;;9.70;99.90;;;;;;5116348;28;20044;-72
2021/12/01 05:39:04;;;;;;;2.70;1.65;;;9.70;99.90;;;;;;5117088;28;20063;-73
2021/12/01 05:41:30;;;;;;;2.90;1.58;;;9.70;99.90;;;;;;5116564;28;20070;-72
2021/12/01 05:43:56;;;;;;;3.08;1.73;;;9.60;99.90;;;;;;5115469;28;20362;-72
2021/12/01 05:46:21;;;;;;;2.83;1.70;;;9.60;99.90;;;;;;5114878;28;20075;-72
2021/12/01 05:48:51;;;;;;;3.08;1.65;;;9.60;99.90;;;;;;5117168;28;20042;-72
2021/12/01 05:51:18;;;;;;;2.78;1.42;;;9.60;99.90;;;;;;5116717;27;20044;-72
2021/12/01 05:53:43;;;;;;;2.50;1.60;;;9.60;99.90;;;;;;5116669;28;20050;-72
2021/12/01 05:56:09;;;;;;;2.50;1.65;;;9.60;99.90;;;;;;5115960;28;20043;-72
2021/12/01 05:58:35;;;;;;;3.30;1.73;;;9.50;99.90;;;;;;5115291;28;20058;-72
2021/12/01 06:01:00;;;;;;;2.70;2.03;;;9.60;99.90;;;;;;5098123;28;20493;-72
2021/12/01 06:03:27;;;;;;;4.13;2.22;;;9.60;99.90;;;;;;5116277;28;20035;-71
2021/12/01 06:05:52;;;;;;;4.00;1.95;;;9.50;99.90;;;;;;5114581;28;20072;-72
2021/12/01 06:08:18;;;;;;;3.00;2.28;;;9.60;99.90;;;;;;5115987;28;20074;-72
2021/12/01 06:10:44;;;;;;;3.33;2.22;;;9.60;99.90;;;;;;5115887;28;20461;-72
2021/12/01 06:13:13;;;;;;;3.08;2.35;;;9.50;99.90;;;;;;5115667;28;20039;-72
2021/12/01 06:15:39;;;;;;;3.75;2.15;;;9.60;99.90;;;;;;5115718;28;20032;-72
2021/12/01 06:18:04;;;;;;;3.67;2.70;;;9.50;99.90;;;;;;5116001;28;20040;-72
2021/12/01 06:20:30;;;;;;;4.63;2.95;;;9.50;99.90;;;;;;5116190;28;20138;-72
2021/12/01 06:22:56;;;;;;;3.95;2.47;;;9.50;99.90;;;;;;5115613;28;20474;-72
2021/12/01 06:25:21;;;;;;;4.57;3.10;;;9.50;99.90;;;;;;5115705;28;20027;-72
2021/12/01 06:27:47;;;;;;;6.80;2.60;;;9.60;99.90;;;;;;5115393;28;20118;-72
2021/12/01 06:30:13;;;;;;;5.15;2.90;;;9.50;99.90;;;;;;5114299;28;20512;-72
2021/12/01 06:32:39;;;;;;;3.15;2.63;;;9.50;99.90;;;;;;5115733;28;20043;-72
2021/12/01 06:35:05;;;;;;;3.72;2.83;;;9.40;99.90;;;;;;5115525;28;20033;-72
2021/12/01 06:37:31;;;;;;;4.03;2.75;;;9.40;99.90;;;;;;5115177;28;20039;-72
2021/12/01 06:39:57;;;;;;;3.58;2.80;;;9.40;99.90;;;;;;5115731;28;20161;-72
2021/12/01 06:42:23;;;;;;;3.47;2.63;;;9.50;99.90;;;;;;5114157;28;20040;-72
2021/12/01 06:44:48;;;;;;;2.60;2.00;;;9.40;99.90;;;;;;5114346;28;20061;-72
2021/12/01 06:47:16;;;;;;;2.63;2.28;;;9.40;99.90;;;;;;5096754;28;20045;-72
2021/12/01 06:49:45;;;;;;;2.88;1.95;;;9.40;99.90;;;;;;5114477;28;20480;-70
2021/12/01 06:52:12;;;;;;;2.35;1.80;;;9.40;99.90;;;;;;5113945;28;20058;-72
2021/12/01 06:54:39;;;;;;;3.88;2.00;;;9.40;99.90;;;;;;5115296;28;20477;-71
2021/12/01 06:57:04;;;;;;;2.55;2.05;;;9.40;99.90;;;;;;5113577;28;20061;-71
2021/12/01 06:59:30;;;;;;;2.22;1.70;;;9.30;99.90;;;;;;5115054;28;20035;-72
2021/12/01 07:01:56;;;;;;;2.17;1.50;;;9.30;99.90;;;;;;5115009;28;20118;-72
2021/12/01 07:04:21;;;;;;;2.90;1.95;;;9.30;99.90;;;;;;5115172;28;20038;-71
2021/12/01 07:06:47;;;;;;;2.47;1.63;;;9.30;99.90;;;;;;5114501;28;20043;-72
2021/12/01 07:09:20;;;;;;;2.15;1.50;;;9.30;99.90;;;;;;5114952;28;20119;-71
2021/12/01 07:11:46;;;;;;;1.70;1.23;;;9.20;99.90;;;;;;5115011;28;20035;-71
2021/12/01 07:14:12;;;;;;;2.00;1.25;;;9.30;99.90;;;;;;5115304;28;20393;-72
2021/12/01 07:16:37;;;;;;;2.20;1.30;;;9.20;99.90;;;;;;5114668;28;20397;-72
2021/12/01 07:19:03;;;;;;;2.38;1.52;;;9.20;99.90;;;;;;5113573;28;20035;-72
2021/12/01 07:21:29;;;;;;;4.80;1.88;;;9.20;99.90;;;;;;5114795;27;20443;-72
2021/12/01 07:23:54;;;;;;;2.42;1.50;;;9.20;99.90;;;;;;5112739;28;20042;-72
2021/12/01 07:26:20;;;;;;;2.15;1.30;;;9.20;99.90;;;;;;5114086;28;20047;-72
2021/12/01 07:28:45;;;;;;;2.75;1.30;;;9.20;99.90;;;;;;5113683;28;20392;-72
2021/12/01 07:31:11;;;;;;;2.47;1.48;;;9.20;99.90;;;;;;5114702;28;20067;-71
2021/12/01 07:33:37;;;;;;;2.22;1.60;;;9.20;99.90;;;;;;5113532;28;20051;-71
2021/12/01 07:36:04;;;;;;;2.53;1.52;;;9.30;99.90;;;;;;5112857;28;20463;-71
2021/12/01 07:38:30;;;;;;;1.90;1.45;;;9.30;99.90;;;;;;5112890;28;20485;-72
2021/12/01 07:40:56;;;;;;;2.55;1.70;;;9.20;99.90;;;;;;5113966;28;20044;-72
2021/12/01 07:43:22;;;;;;;2.35;1.70;;;9.20;99.90;;;;;;5114295;28;20040;-72
2021/12/01 07:45:47;;;;;;;3.45;1.70;;;9.20;99.90;;;;;;5113734;27;20047;-72
2021/12/01 07:48:14;;;;;;;3.72;1.75;;;9.20;99.90;;;;;;5096188;28;20096;-72
2021/12/01 07:50:40;;;;;;;2.42;1.83;;;9.20;99.90;;;;;;5113151;28;20042;-72
2021/12/01 07:53:06;;;;;;;2.60;1.77;;;9.20;99.90;;;;;;5113984;28;20050;-72
2021/12/01 07:55:32;;;;;;;4.65;2.88;;;9.20;99.90;;;;;;5112413;28;20043;-73
2021/12/01 07:57:57;;;;;;;2.75;2.35;;;9.30;99.90;;;;;;5114739;28;20368;-73
2021/12/01 08:00:23;;;;;;;6.55;3.00;;;9.20;99.90;;;;;;5114458;28;20054;-73
2021/12/01 08:02:48;;;;;;;5.85;2.63;;;9.20;99.90;;;;;;5112048;28;20050;-72
2021/12/01 08:05:14;;;;;;;4.40;2.60;;;9.30;99.90;;;;;;5120399;27;20190;-72
2021/12/01 08:07:40;;;;;;;5.97;3.20;;;9.20;99.90;;;;;;5124481;27;20039;-73
2021/12/01 08:10:07;;;;;;;4.68;2.60;;;9.30;99.90;;;;;;5134426;27;20050;-73
2021/12/01 08:12:34;;;;;;;4.93;3.03;;;9.20;99.90;;;;;;5134576;27;20509;-72
2021/12/01 08:15:02;;;;;;;4.88;3.22;;;9.20;99.90;;;;;;5134249;27;20384;-72
2021/12/01 08:17:27;;;;;;;5.65;3.40;;;9.30;99.90;;;;;;5133825;27;20035;-72
2021/12/01 08:19:53;;;;;;;6.75;3.78;;;9.20;99.90;;;;;;5134176;27;20041;-72
2021/12/01 08:22:19;;;;;;;5.07;3.47;;;9.20;99.90;;;;;;5134554;27;20027;-72
2021/12/01 08:24:44;;;;;;;6.10;3.65;;;9.30;99.90;;;;;;5134504;27;20035;-72
2021/12/01 08:27:10;;;;;;;5.70;3.75;;;9.20;99.90;;;;;;5133513;28;20046;-72
2021/12/01 08:29:36;;;;;;;8.98;4.68;;;9.20;99.90;;;;;;5134770;27;20034;-72
2021/12/01 08:32:01;;;;;;;5.10;4.38;;;9.20;99.90;;;;;;5133164;27;20043;-72
2021/12/01 08:34:27;;;;;;;8.43;4.60;;;9.20;99.90;;;;;;5134815;27;20054;-72
2021/12/01 08:36:52;;;;;;;6.05;4.68;;;9.20;99.90;;;;;;5136005;27;20043;-72
2021/12/01 08:39:18;;;;;;;8.55;4.97;;;9.20;99.90;;;;;;5137966;27;20054;-72
2021/12/01 08:41:44;;;;;;;5.88;4.20;;;9.30;99.90;;;;;;5138101;27;20511;-72
2021/12/01 08:44:10;;;;;;;8.07;4.57;;;9.30;99.90;;;;;;5138701;27;20439;-71
2021/12/01 08:46:36;;;;;;;8.27;4.18;;;9.30;99.90;;;;;;5136649;27;20096;-71
2021/12/01 08:49:02;;;;;;;7.25;4.10;;;9.40;99.90;;;;;;5138210;27;20122;-72
2021/12/01 08:51:30;;;;;;;6.57;3.50;;;9.50;99.90;;;;;;5138317;27;20121;-72
2021/12/01 08:53:56;;;;;;;7.18;2.67;;;9.50;99.90;;;;;;5138059;27;20031;-72
2021/12/01 08:56:22;;;;;;;8.48;2.83;;;9.50;99.90;;;;;;5138078;27;20122;-72
2021/12/01 08:58:48;;;;;;;8.35;2.83;;;9.50;99.90;;;;;;5138657;27;20078;-72
2021/12/01 09:01:14;;;;;;;9.55;2.42;;;9.50;99.90;;;;;;5136741;27;20154;-72
2021/12/01 09:03:39;;;;;;;11.82;3.28;;;9.50;99.90;;;;;;5136582;27;20047;-72
2021/12/01 09:06:05;;;;;;;16.17;2.70;;;9.50;99.90;;;;;;5136447;27;20090;-72
2021/12/01 09:08:31;;;;;;;16.40;3.75;;;9.50;99.90;;;;;;5137591;27;20039;-75
2021/12/01 09:10:59;;;;;;;14.35;2.92;;;9.40;99.90;;;;;;5137672;27;20062;-72
2021/12/01 09:13:28;;;;;;;15.52;2.88;;;9.50;99.90;;;;;;5138198;27;20039;-71
2021/12/01 09:15:56;;;;;;;14.52;2.90;;;9.50;99.90;;;;;;5136577;27;20495;-71
2021/12/01 09:18:23;;;;;;;15.95;3.65;;;9.40;99.90;;;;;;5137320;27;20063;-71
2021/12/01 09:20:55;;;;;;;12.60;3.03;;;9.40;99.90;;;;;;5136351;27;20504;-71
2021/12/01 09:23:21;;;;;;;13.32;3.17;;;9.50;99.90;;;;;;5118803;27;20039;-71
2021/12/01 09:25:47;;;;;;;13.10;3.47;;;9.40;99.90;;;;;;5136807;27;20484;-71
2021/12/01 09:28:16;;;;;;;8.30;2.15;;;9.40;99.90;;;;;;5137277;27;20039;-71
2021/12/01 09:30:42;;;;;;;7.47;1.95;;;9.40;99.90;;;;;;5137633;27;20137;-71
2021/12/01 09:33:08;;;;;;;9.77;2.08;;;9.30;99.90;;;;;;5136131;27;20075;-71
2021/12/01 09:35:33;;;;;;;9.05;2.78;;;9.40;99.90;;;;;;5136875;27;20072;-71
2021/12/01 09:37:59;;;;;;;9.95;2.10;;;9.30;99.90;;;;;;5135863;27;20069;-71
2021/12/01 09:40:25;;;;;;;8.52;1.90;;;9.30;99.90;;;;;;5136257;27;20104;-71
2021/12/01 09:42:52;;;;;;;8.70;1.63;;;9.30;99.90;;;;;;5136249;27;20178;-71
2021/12/01 09:45:21;;;;;;;8.95;1.60;;;9.30;99.90;;;;;;5135861;27;20071;-71
2021/12/01 09:47:49;;;;;;;8.43;2.38;;;9.30;99.90;;;;;;5135893;27;20076;-71
2021/12/01 09:50:16;;;;;;;4.45;1.40;;;9.30;99.90;;;;;;5137138;27;20126;-71
2021/12/01 09:52:42;;;;;;;6.63;1.50;;;9.20;99.90;;;;;;5135677;27;20092;-71
2021/12/01 09:55:12;;;;;;;14.48;2.08;;;9.20;99.90;;;;;;5136858;27;20114;-71
2021/12/01 09:57:37;;;;;;;7.57;1.80;;;9.20;99.90;;;;;;5136364;27;20046;-71
2021/12/01 10:00:06;;;;;;;6.65;1.52;;;9.20;99.90;;;;;;5135461;27;20043;-71
2021/12/01 10:02:32;;;;;;;6.90;1.40;;;9.20;99.90;;;;;;5118275;27;20051;-71
2021/12/01 10:04:58;;;;;;;8.50;1.23;;;9.20;99.90;;;;;;5135843;27;20392;-71
2021/12/01 10:07:33;;;;;;;9.60;1.52;;;9.20;99.90;;;;;;5136242;27;20078;-70
2021/12/01 10:10:08;;;;;;;11.20;2.05;;;9.20;99.90;;;;;;5136823;27;20421;-72
2021/12/01 10:12:50;;;;;;;12.32;1.67;;;9.30;99.90;;;;;;5136547;27;20110;-71
2021/12/01 10:15:31;;;;;;;13.68;2.28;;;9.30;99.90;;;;;;5137100;27;20091;-71
2021/12/01 10:18:15;;;;;;;9.02;1.92;;;9.30;99.90;;;;;;5135120;27;20047;-71
2021/12/01 10:20:43;;;;;;;9.43;2.33;;;9.30;99.90;;;;;;5136578;27;20122;-71
2021/12/01 10:23:15;;;;;;;8.52;2.30;;;9.30;99.90;;;;;;5136339;27;20037;-71
2021/12/01 10:25:42;;;;;;;15.00;2.60;;;9.30;99.90;;;;;;5135695;27;20042;-71
2021/12/01 10:28:13;;;;;;;10.60;3.08;;;9.30;99.90;;;;;;5136007;27;20075;-71
2021/12/01 10:30:45;;;;;;;11.20;1.75;;;9.30;99.90;;;;;;5135152;27;20031;-71
2021/12/01 10:33:17;;;;;;;10.40;1.93;;;9.40;99.90;;;;;;5136208;27;20030;-71
2021/12/01 10:35:43;;;;;;;9.88;1.90;;;9.40;99.90;;;;;;5135776;27;20308;-71
2021/12/01 10:38:13;;;;;;;10.63;2.20;;;9.40;99.90;;;;;;5136132;27;20035;-71
2021/12/01 10:40:41;;;;;;;7.90;1.92;;;9.40;99.90;;;;;;5136075;27;20066;-72
2021/12/01 10:43:10;;;;;;;14.75;2.72;;;9.30;99.90;;;;;;5137644;27;20044;-71
2021/12/01 10:45:38;;;;;;;22.75;3.00;;;9.30;99.90;;;;;;5134543;27;20047;-72
2021/12/01 10:48:06;;;;;;;14.40;2.22;;;9.30;99.90;;;;;;5135012;27;20115;-72
2021/12/01 10:50:34;;;;;;;14.35;2.67;;;9.40;99.90;;;;;;5134769;27;20118;-72
2021/12/01 10:53:05;;;;;;;10.57;2.65;;;9.40;99.90;;;;;;5135638;27;20156;-73
2021/12/01 10:55:32;;;;;;;14.18;2.13;;;9.40;99.90;;;;;;5116915;27;20050;-72
2021/12/01 10:58:03;;;;;;;11.15;1.80;;;9.40;99.90;;;;;;5134062;27;20066;-72
2021/12/01 11:00:32;;;;;;;11.52;1.88;;;9.40;99.90;;;;;;5132958;27;20072;-72
2021/12/01 11:03:09;;;;;;;9.52;2.95;;;9.40;99.90;;;;;;5135442;27;20392;-73
2021/12/01 11:05:37;;;;;;;8.27;1.73;;;9.40;99.90;;;;;;5117353;27;20453;-72
2021/12/01 11:08:15;;;;;;;7.80;2.03;;;9.30;99.90;;;;;;5134790;27;20031;-72
2021/12/01 11:10:46;;;;;;;8.75;1.33;;;9.30;99.90;;;;;;5135338;27;20045;-72
2021/12/01 11:13:12;;;;;;;6.00;1.77;;;9.30;99.90;;;;;;5126813;27;20039;-71
2021/12/01 11:15:41;;;;;;;8.70;2.03;;;9.30;99.90;;;;;;5114323;28;20043;-72
2021/12/01 11:18:15;;;;;;;11.93;2.08;;;9.20;99.90;;;;;;5096697;28;20039;-71
2021/12/01 11:20:44;;;;;;;;;;;9.20;99.90;;;;;;5114595;28;20105;-72
2021/12/01 11:23:10;;;;;;;11.15;1.85;;;9.20;99.90;;;;;;5113431;28;19916;-71
2021/12/01 11:25:36;;;;;;;13.10;2.40;;;9.20;99.90;;;;;;5096140;28;20709;-72
2021/12/01 11:28:04;;;;;;;17.13;3.42;;;9.20;99.90;;;;;;5113780;28;20043;-72
2021/12/01 11:30:30;;;;;;;10.13;2.38;;;9.20;99.90;;;;;;5114401;28;20047;-72
2021/12/01 11:32:55;;;;;;;10.32;2.45;;;9.30;99.90;;;;;;5114596;28;20039;-71
2021/12/01 11:35:21;;;;;;;10.90;1.98;;;9.30;99.90;;;;;;5113194;28;20027;-71
2021/12/01 11:37:55;;;;;;;10.85;2.50;;;9.30;99.90;;;;;;5112728;28;20508;-72
2021/12/01 11:40:30;;;;;;;;;;;9.30;99.90;;;;;;5114957;28;20050;-69
2021/12/01 11:42:56;;;;;;;13.70;2.72;;;9.40;99.90;;;;;;5113857;28;20365;-71
2021/12/01 11:45:22;;;;;;;15.25;4.18;;;9.40;99.90;;;;;;5115323;28;20361;-71
2021/12/01 11:47:49;;;;;;;15.65;3.67;;;9.40;99.90;;;;;;5115162;27;20153;-71
2021/12/01 11:50:31;;;;;;;16.02;3.15;;;9.40;99.90;;;;;;5114925;28;20381;-71
2021/12/01 11:53:22;;;;;;;11.63;2.72;;;9.40;99.90;;;;;;5114027;28;20119;-71
2021/12/01 11:56:25;;;;;;;15.40;3.22;;;9.40;99.90;;;;;;5112960;28;20039;-71
2021/12/01 11:59:14;;;;;;;22.77;5.38;;;9.40;99.90;;;;;;5103959;28;20047;-71
2021/12/01 12:01:49;;;;;;;19.05;3.42;;;9.40;99.90;;;;;;5112681;28;20043;-71
2021/12/01 12:04:16;;;;;;;14.15;3.08;;;9.30;99.90;;;;;;5114261;28;20031;-71
2021/12/01 12:07:04;;;;;;;10.50;3.40;;;9.30;99.90;;;;;;5115102;28;20040;-72
2021/12/01 12:09:30;;;;;;;15.00;3.10;;;9.20;99.90;;;;;;5115805;28;20040;-72
2021/12/01 12:12:06;;;;;;;17.30;3.38;;;9.10;99.90;;;;;;5113679;28;20036;-72
2021/12/01 12:14:43;;;;;;;18.90;3.25;;;9.20;99.90;;;;;;5113791;28;20092;-69
2021/12/01 12:17:15;;;;;;;10.23;2.92;;;9.10;99.90;;;;;;5095240;28;20685;-69
2021/12/01 12:19:44;;;;;;;15.77;3.65;;;9.10;99.90;;;;;;5113842;28;20043;-69
2021/12/01 12:22:11;;;;;;;12.15;3.10;;;9.00;99.90;;;;;;5112352;28;20039;-69
2021/12/01 12:24:53;;;;;;;12.60;2.75;;;9.00;99.90;;;;;;5112768;28;20404;-69
2021/12/01 12:27:35;;;;;;;19.23;3.17;;;8.90;99.90;;;;;;5113216;28;20075;-69
2021/12/01 12:30:04;;;;;;;18.98;3.95;;;8.90;99.90;;;;;;5112646;28;20145;-69
2021/12/01 12:32:30;;;;;;;21.85;3.70;;;9.00;99.90;;;;;;5113961;28;20130;-69
2021/12/01 12:34:58;;;;;;;18.85;2.63;;;9.00;99.90;;;;;;5113824;28;20071;-69
2021/12/01 12:37:31;;;;;;;17.42;2.83;;;9.00;99.90;;;;;;5112290;28;20043;-69
2021/12/01 12:39:58;;;;;;;16.13;3.63;;;9.00;99.90;;;;;;5112307;28;20054;-72
2021/12/01 12:42:28;;;;;;;14.27;3.40;;;9.00;99.90;;;;;;5113491;28;20273;-70
2021/12/01 12:44:56;;;;;;;17.83;2.85;;;9.00;99.90;;;;;;5112452;28;20047;-70
2021/12/01 12:47:27;;;;;;;10.05;2.45;;;8.90;99.90;;;;;;5113408;28;20070;-70
2021/12/01 12:50:09;;;;;;;14.68;2.67;;;8.90;99.90;;;;;;5112752;28;20035;-70
2021/12/01 12:52:38;;;;;;;10.05;3.03;;;9.00;99.90;;;;;;5112618;28;20054;-70
2021/12/01 12:55:21;;;;;;;14.10;1.90;;;8.90;99.90;;;;;;5113764;28;20092;-70
2021/12/01 12:58:03;;;;;;;8.70;2.20;;;8.90;99.90;;;;;;5112016;28;20573;-71